VTSPWMKL

Guest
Details From VTSP - Phuket Intl
To WMKL - Langkawi Intl
Flight Number -
Tags generated
Created
Modified
Stats Distance 137 nm / 255 km
Max Altitude 9,500 ft / 2,896 m
Waypoints 4
Social Downloads 0
Likes 0
Share VATSIM

Download

Looking for another format? Having issues loading an existing format? Contact us
Advertisement - Login to hide

Notes

Basic altitude profile: - Ascent Rate: 2500ft/min - Ascent Speed: 250kts - Cruise Altitude: 35000ft - Cruise Speed: 420kts - Descent Rate: 1500ft/min - Descent Speed: 250kts Options: - Use NATs: yes - Use PACOTS: yes - Use low airways: yes - Use high airways: yes

Route

VTSP PUT B579 DALAN WMKL

ID Type Via Altitude Latitude Longitude Leg Dist Tot Dist Heading (true) Name
O VTSP APT - 0 ft / 0 m 8.11320˚ 98.31687˚ - 0 nm - Phuket Intl
PUT VOR - 200 ft / 61 m 8.11523˚ 98.30630˚ 0 nm 0 nm 281° / 281° PHUKET VOR-DME
DALAN FIX B579 (AWY-LO) 9,500 ft / 2,896 m 6.46889˚ 99.65556˚ 127 nm 128 nm 141° / 141° -
O WMKL APT - 0 ft / 0 m 6.32973˚ 99.72866˚ 9 nm 137 nm 152° / 152° Langkawi Intl

Altitude Profile

Advertisement - Login to hide

VTSP

Details ICAO VTSP (HKT)
Name Phuket Intl
Region Thailand
Timezone Asia/Bangkok (UTC+7.0)
Stats Elevation 82 ft / 25 m (AMSL)
Location 8.113199° 98.316871°
Runways 1
Magnetic Variation 0.433° W

METAR

VTSP 151600Z 00000KT 9999 FEW025 25/24 Q1014 NOSIG

Decode

TAF

TAF VTSP 151100Z 1512/1618 30008KT 9000 FEW020 BECMG 1521/1523 08006KT BECMG 1604/1606 30008KT 9999 TEMPO 1610/1614 VRB10G20KT 3000 TSRA FEW018CB SCT020 BKN100 BECMG 1614/1616 VRB02KT 8000

Decode

Departure Runways

ID Width Length Bearing (true) Bearing (mag) Surface Threshold Offset Overrun Length
09 148 ft / 45 m 9,870 ft / 3,008 m 84.45° 84.88° Asphalt 0 ft / 0 m 197 ft / 60 m
27 148 ft / 45 m 9,870 ft / 3,008 m 264.46° 264.89° Asphalt 0 ft / 0 m 197 ft / 60 m

WMKL

Details ICAO WMKL (LGK)
Name Langkawi Intl
Region Malaysia (Peninsular Malaysia)
Timezone Asia/Kuala_Lumpur (UTC+8.0)
Stats Elevation 29 ft / 9 m (AMSL)
Location 6.329726° 99.728665°
Runways 1
Magnetic Variation 0.282° W

METAR

WMKL 151600Z VRB01KT 9999 FEW025 SCT140 BKN270 26/24 Q1012

Decode

TAF

TAF WMKL 151100Z 1512/1612 24005KT 9999 FEW017CB SCT140 BKN270

Decode

Destination Runways

ID Width Length Bearing (true) Bearing (mag) Surface Threshold Offset Overrun Length
03 148 ft / 45 m 12,543 ft / 3,823 m 34.19° 34.47° Asphalt 2,000 ft / 610 m 193 ft / 59 m
21 148 ft / 45 m 12,543 ft / 3,823 m 214.20° 214.48° Asphalt 0 ft / 0 m 175 ft / 53 m

Approach Navaids

Runway Type Ident Frequency Range Bearing (true) Bearing (mag) Slope Elevation
03 Localiser ILK 110.70 MHz 18 nm / 33 km 35.68° 35.96° - 29 ft / 9 m (AMSL)
03 Glidescope ILK 110.70 MHz 10 nm / 19 km 34.19° 34.48° 3.00° 29 ft / 9 m (AMSL)
03 DME ILK 110.70 MHz 18 nm / 33 km - - - 29 ft / 9 m (AMSL)

Popular Alternatives